createdAt,value
2022-12-07T00:01:34.859Z,61.24
2022-12-07T00:04:07.659Z,60.53
2022-12-07T00:06:43.221Z,60.62
2022-12-07T00:09:16.372Z,59.79
2022-12-07T00:11:44.209Z,60.24
2022-12-07T00:14:16.689Z,59.35
2022-12-07T00:16:44.648Z,60.25
2022-12-07T00:19:13.296Z,60.06
2022-12-07T00:21:40.700Z,59.90
2022-12-07T00:24:07.752Z,59.31
2022-12-07T00:26:39.851Z,58.95
2022-12-07T00:29:14.442Z,59.52
2022-12-07T00:31:41.343Z,60.35
2022-12-07T00:34:12.749Z,60.14
2022-12-07T00:36:39.670Z,60.00
2022-12-07T00:39:06.463Z,59.32
2022-12-07T00:41:33.270Z,59.71
2022-12-07T00:44:00.145Z,61.27
2022-12-07T00:46:27.775Z,61.87
2022-12-07T00:48:56.004Z,61.01
2022-12-07T00:51:26.048Z,61.12
2022-12-07T00:53:53.553Z,61.85
2022-12-07T00:56:27.104Z,62.14
2022-12-07T00:58:59.206Z,61.60
2022-12-07T01:01:28.836Z,61.21
2022-12-07T01:03:56.297Z,61.41
2022-12-07T01:06:24.485Z,61.76
2022-12-07T01:08:51.568Z,60.80
2022-12-07T01:11:21.410Z,61.13
2022-12-07T01:13:50.181Z,62.59
2022-12-07T01:16:18.462Z,63.10
2022-12-07T01:18:48.860Z,62.16
2022-12-07T01:21:17.088Z,61.34
2022-12-07T01:23:44.836Z,61.29
2022-12-07T01:26:13.781Z,61.04
2022-12-07T01:28:40.799Z,60.98
2022-12-07T01:31:15.980Z,61.01
2022-12-07T01:33:50.954Z,60.60
2022-12-07T01:36:19.712Z,60.48
2022-12-07T01:38:48.439Z,61.88
2022-12-07T01:41:16.109Z,61.21
2022-12-07T01:44:08.483Z,59.43
2022-12-07T01:46:35.556Z,61.51
2022-12-07T01:49:04.769Z,60.60
2022-12-07T01:51:31.795Z,60.36
2022-12-07T01:53:59.520Z,60.88
2022-12-07T01:56:30.150Z,60.83
2022-12-07T01:58:59.868Z,60.70
2022-12-07T02:01:26.687Z,60.90
2022-12-07T02:03:54.562Z,61.55
2022-12-07T02:06:24.866Z,61.80
2022-12-07T02:08:51.802Z,62.19
2022-12-07T02:11:19.334Z,61.75
2022-12-07T02:13:47.401Z,61.54
2022-12-07T02:16:43.285Z,60.85
2022-12-07T02:19:28.169Z,60.91
2022-12-07T02:22:12.987Z,63.38
2022-12-07T02:24:45.310Z,62.74
2022-12-07T02:27:12.010Z,61.97
2022-12-07T02:30:00.268Z,62.62
2022-12-07T02:32:33.122Z,63.80
2022-12-07T02:35:07.593Z,64.27
2022-12-07T02:37:43.352Z,61.84
2022-12-07T02:40:23.554Z,61.72
2022-12-07T02:42:58.820Z,62.13
2022-12-07T02:45:28.054Z,61.80
2022-12-07T02:47:59.811Z,61.31
2022-12-07T02:50:27.655Z,60.90
2022-12-07T02:52:54.682Z,59.85
2022-12-07T02:55:28.327Z,61.71
2022-12-07T02:58:03.881Z,62.50
2022-12-07T03:00:36.551Z,62.97
2022-12-07T03:03:12.529Z,63.24
2022-12-07T03:05:48.604Z,62.64
2022-12-07T03:08:30.314Z,61.64
2022-12-07T03:11:10.050Z,61.71
2022-12-07T03:13:48.169Z,61.31
2022-12-07T03:16:41.836Z,61.00
2022-12-07T03:19:16.341Z,61.72
2022-12-07T03:21:47.553Z,60.98
2022-12-07T03:24:22.094Z,64.01
2022-12-07T03:26:53.921Z,62.54
2022-12-07T03:29:28.829Z,62.31
2022-12-07T03:32:03.451Z,62.07
2022-12-07T03:34:49.713Z,61.84
2022-12-07T03:37:29.716Z,61.82
2022-12-07T03:40:13.985Z,61.24
2022-12-07T03:42:41.607Z,60.75
2022-12-07T03:45:09.072Z,62.79
2022-12-07T03:47:53.311Z,62.63
2022-12-07T03:50:44.042Z,62.33
2022-12-07T03:53:23.915Z,61.80
2022-12-07T03:55:53.734Z,61.73
2022-12-07T03:58:22.896Z,61.51
2022-12-07T04:00:51.422Z,61.75
2022-12-07T04:03:18.357Z,61.75
2022-12-07T04:05:45.768Z,62.31
2022-12-07T04:08:12.820Z,62.54
2022-12-07T04:10:39.887Z,62.80
2022-12-07T04:13:06.648Z,62.18
2022-12-07T04:15:33.438Z,62.07
2022-12-07T04:18:00.240Z,62.08
2022-12-07T04:20:27.057Z,62.67
2022-12-07T04:22:54.188Z,62.75
2022-12-07T04:25:20.886Z,61.78
2022-12-07T04:27:47.802Z,61.80
2022-12-07T04:30:14.757Z,62.11
2022-12-07T04:32:41.779Z,62.11
2022-12-07T04:35:09.123Z,62.35
2022-12-07T04:37:36.000Z,62.38
2022-12-07T04:40:03.145Z,62.39
2022-12-07T04:42:30.402Z,62.88
2022-12-07T04:44:57.140Z,61.94
2022-12-07T04:47:24.007Z,61.59
2022-12-07T04:49:50.819Z,61.72
2022-12-07T04:52:17.748Z,61.87
2022-12-07T04:54:44.413Z,62.80
2022-12-07T04:57:11.150Z,64.34
2022-12-07T04:59:42.277Z,64.23
2022-12-07T05:02:12.104Z,62.49
2022-12-07T05:04:38.978Z,61.57
2022-12-07T05:07:05.917Z,61.40
2022-12-07T05:09:32.680Z,61.75
2022-12-07T05:11:59.956Z,61.55
2022-12-07T05:14:28.684Z,61.13
2022-12-07T05:16:55.733Z,61.62
2022-12-07T05:19:22.547Z,61.75
2022-12-07T05:21:49.525Z,61.19
2022-12-07T05:24:17.547Z,62.70
2022-12-07T05:26:45.710Z,62.50
2022-12-07T05:29:14.521Z,62.32
2022-12-07T05:31:41.995Z,61.38
2022-12-07T05:34:08.944Z,61.25
2022-12-07T05:36:35.992Z,64.25
2022-12-07T05:39:02.878Z,63.22
2022-12-07T05:41:48.117Z,62.63
2022-12-07T05:44:15.161Z,63.20
2022-12-07T05:46:43.271Z,61.97
2022-12-07T05:49:10.234Z,61.31
2022-12-07T05:51:37.030Z,61.21
2022-12-07T05:54:05.021Z,61.23
2022-12-07T05:56:31.806Z,60.98
2022-12-07T05:59:28.023Z,61.11
2022-12-07T06:01:56.327Z,64.80
2022-12-07T06:04:24.186Z,63.58
2022-12-07T06:06:51.531Z,63.55
2022-12-07T06:09:22.241Z,63.16
2022-12-07T06:12:07.930Z,64.18
2022-12-07T06:14:34.960Z,64.13
2022-12-07T06:17:01.871Z,63.00
2022-12-07T06:19:28.903Z,62.15
2022-12-07T06:21:57.139Z,62.66
2022-12-07T06:24:24.364Z,63.08
2022-12-07T06:26:51.340Z,62.21
2022-12-07T06:29:19.278Z,61.63
2022-12-07T06:31:46.485Z,62.13
2022-12-07T06:34:16.296Z,62.27
2022-12-07T06:36:43.478Z,62.22
2022-12-07T06:39:10.311Z,61.83
2022-12-07T06:41:40.844Z,61.32
2022-12-07T06:44:07.889Z,62.11
2022-12-07T06:46:36.749Z,60.71
2022-12-07T06:49:05.208Z,60.09
2022-12-07T06:51:33.586Z,60.45
2022-12-07T06:54:00.723Z,61.03
2022-12-07T06:56:27.536Z,60.89
2022-12-07T06:58:54.391Z,61.03
2022-12-07T07:01:21.247Z,61.09
2022-12-07T07:03:48.357Z,60.73
2022-12-07T07:06:15.780Z,61.18
2022-12-07T07:08:42.993Z,62.10
2022-12-07T07:11:10.230Z,63.43
2022-12-07T07:13:37.348Z,62.20
2022-12-07T07:16:04.439Z,63.43
2022-12-07T07:18:31.506Z,63.02
2022-12-07T07:20:58.541Z,62.95
2022-12-07T07:23:25.910Z,61.77
2022-12-07T07:25:52.840Z,61.52
2022-12-07T07:28:19.663Z,62.17
2022-12-07T07:30:46.443Z,60.65
2022-12-07T07:33:13.874Z,62.00
2022-12-07T07:35:40.754Z,61.79
2022-12-07T07:38:08.575Z,61.42
2022-12-07T07:40:35.848Z,61.88
2022-12-07T07:43:02.809Z,61.19
2022-12-07T07:45:30.736Z,60.05
2022-12-07T07:47:57.804Z,59.65
2022-12-07T07:50:24.604Z,58.74
2022-12-07T07:52:52.287Z,58.54
2022-12-07T07:55:19.427Z,58.75
2022-12-07T07:57:51.138Z,58.47
2022-12-07T08:00:20.431Z,58.22
2022-12-07T08:02:47.449Z,57.70
2022-12-07T08:05:14.883Z,57.40
2022-12-07T08:07:42.109Z,57.33
2022-12-07T08:10:12.905Z,56.63
2022-12-07T08:13:02.435Z,56.85
2022-12-07T08:15:31.237Z,56.81
2022-12-07T08:17:58.186Z,57.08
2022-12-07T08:20:25.652Z,57.25
2022-12-07T08:22:52.517Z,58.30
2022-12-07T08:25:19.937Z,58.48
2022-12-07T08:27:46.793Z,57.61
2022-12-07T08:30:14.038Z,56.90
2022-12-07T08:32:40.917Z,56.56
2022-12-07T08:35:09.007Z,55.21
2022-12-07T08:37:36.011Z,54.74
2022-12-07T08:40:04.231Z,55.21
2022-12-07T08:42:38.845Z,55.05
2022-12-07T08:45:11.305Z,55.44
2022-12-07T08:47:43.492Z,56.80
2022-12-07T08:50:12.581Z,57.06
2022-12-07T08:52:41.446Z,57.33
2022-12-07T08:55:10.943Z,57.05
2022-12-07T08:57:39.308Z,57.45
2022-12-07T09:00:08.520Z,57.64
2022-12-07T09:02:35.630Z,57.34
2022-12-07T09:05:02.360Z,57.29
2022-12-07T09:07:33.152Z,57.96
2022-12-07T09:10:00.234Z,57.72
2022-12-07T09:12:27.637Z,57.94
2022-12-07T09:14:54.468Z,59.14
2022-12-07T09:17:21.681Z,59.25
2022-12-07T09:19:48.432Z,57.79
2022-12-07T09:22:15.339Z,57.41
2022-12-07T09:24:42.177Z,56.84
2022-12-07T09:27:08.995Z,56.50
2022-12-07T09:29:35.817Z,57.26
2022-12-07T09:32:06.878Z,56.66
2022-12-07T09:34:38.166Z,56.99
2022-12-07T09:37:05.167Z,57.22
2022-12-07T09:39:32.000Z,57.03
2022-12-07T09:42:00.208Z,56.34
2022-12-07T09:44:28.377Z,56.78
2022-12-07T09:46:56.161Z,56.78
2022-12-07T09:49:26.473Z,57.66
2022-12-07T09:52:24.116Z,57.21
2022-12-07T09:54:52.715Z,56.63
2022-12-07T09:57:26.797Z,56.20
2022-12-07T09:59:53.849Z,55.16
2022-12-07T10:02:35.451Z,55.14
2022-12-07T10:05:04.679Z,54.87
2022-12-07T10:07:31.632Z,54.65
2022-12-07T10:09:58.597Z,55.87
2022-12-07T10:12:25.329Z,56.28
2022-12-07T10:15:18.658Z,55.36
2022-12-07T10:17:50.865Z,55.02
2022-12-07T10:20:26.142Z,54.99
2022-12-07T10:23:14.518Z,55.37
2022-12-07T10:25:41.903Z,54.56
2022-12-07T10:28:08.576Z,54.22
2022-12-07T10:31:00.548Z,55.02
2022-12-07T10:33:39.418Z,54.53
2022-12-07T10:36:36.635Z,53.84
2022-12-07T10:39:15.905Z,53.60
2022-12-07T10:41:59.459Z,52.93
2022-12-07T10:44:32.044Z,52.45
2022-12-07T10:47:25.018Z,52.63
2022-12-07T10:50:09.703Z,52.15
2022-12-07T10:52:36.499Z,52.33
2022-12-07T10:55:23.097Z,52.85
2022-12-07T10:58:17.963Z,52.15
2022-12-07T11:00:49.093Z,52.22
2022-12-07T11:04:06.536Z,52.73
2022-12-07T11:06:42.883Z,52.25
2022-12-07T11:09:44.961Z,52.40
2022-12-07T11:12:20.331Z,51.87
2022-12-07T11:15:05.230Z,51.86
2022-12-07T11:17:43.325Z,51.76
2022-12-07T11:20:34.573Z,51.98
2022-12-07T11:23:42.989Z,52.13
2022-12-07T11:26:37.719Z,52.22
2022-12-07T11:29:13.027Z,52.49
2022-12-07T11:32:05.497Z,52.36
2022-12-07T11:35:11.167Z,51.90
2022-12-07T11:40:31.118Z,51.54
2022-12-07T11:43:17.457Z,50.73
2022-12-07T11:45:49.502Z,49.32
2022-12-07T11:48:34.766Z,49.35
2022-12-07T11:51:04.191Z,49.29
2022-12-07T11:53:40.658Z,50.17
2022-12-07T11:56:16.395Z,49.67
2022-12-07T11:58:43.268Z,50.41
2022-12-07T12:01:21.134Z,49.59
2022-12-07T12:03:53.385Z,47.67
2022-12-07T12:06:22.682Z,45.43
2022-12-07T12:15:32.394Z,44.49
2022-12-07T12:18:22.525Z,45.33
2022-12-07T12:20:52.573Z,46.11
2022-12-07T12:23:30.950Z,47.92
2022-12-07T12:26:08.723Z,47.66
2022-12-07T12:28:38.605Z,48.13
2022-12-07T12:31:22.922Z,49.61
2022-12-07T12:33:56.557Z,48.52
2022-12-07T12:36:32.087Z,47.83
2022-12-07T12:39:07.757Z,46.44
2022-12-07T12:42:00.396Z,47.19
2022-12-07T12:44:30.249Z,47.66
2022-12-07T12:47:05.765Z,49.36
2022-12-07T12:49:39.750Z,47.47
2022-12-07T12:52:15.732Z,45.79
2022-12-07T12:54:57.918Z,42.91
2022-12-07T12:57:29.976Z,41.31
2022-12-07T13:00:00.501Z,39.86
2022-12-07T13:02:29.938Z,38.71
2022-12-07T13:05:00.696Z,34.83
2022-12-07T13:07:52.099Z,37.70
2022-12-07T13:10:22.017Z,35.94
2022-12-07T13:12:59.124Z,36.82
2022-12-07T13:15:42.175Z,38.04
2022-12-07T13:18:33.840Z,37.47
2022-12-07T13:21:03.538Z,38.36
2022-12-07T13:23:30.482Z,41.45
2022-12-07T13:26:20.492Z,42.38
2022-12-07T13:29:21.864Z,42.59
2022-12-07T13:31:52.381Z,43.35
2022-12-07T13:34:34.192Z,42.78
2022-12-07T13:37:03.269Z,45.70
2022-12-07T13:39:30.106Z,44.78
2022-12-07T13:41:59.097Z,45.09
2022-12-07T13:44:28.346Z,45.23
2022-12-07T13:47:16.709Z,46.49
2022-12-07T13:49:53.942Z,46.46
2022-12-07T13:52:25.603Z,46.28
2022-12-07T13:55:18.690Z,46.04
2022-12-07T13:57:50.710Z,46.42
2022-12-07T14:00:20.854Z,46.43
2022-12-07T14:03:02.834Z,47.69
2022-12-07T14:05:36.263Z,48.19
2022-12-07T14:08:07.320Z,48.61
2022-12-07T14:10:41.149Z,48.47
2022-12-07T14:13:29.411Z,49.38
2022-12-07T14:15:57.339Z,49.95
2022-12-07T14:18:41.809Z,50.29
2022-12-07T14:21:11.567Z,50.00
2022-12-07T14:23:40.054Z,49.79
2022-12-07T14:26:20.210Z,50.45
2022-12-07T14:28:48.002Z,51.08
2022-12-07T14:31:26.375Z,50.49
2022-12-07T14:34:00.599Z,50.96
2022-12-07T14:36:27.401Z,50.20
2022-12-07T14:38:57.216Z,49.40
2022-12-07T14:41:43.695Z,48.59
2022-12-07T14:44:34.002Z,48.02
2022-12-07T14:49:46.852Z,49.83
2022-12-07T14:55:15.335Z,48.74
2022-12-07T14:57:42.167Z,49.28
2022-12-07T15:00:14.162Z,49.96
2022-12-07T15:02:40.910Z,52.13
2022-12-07T15:05:12.701Z,52.03
2022-12-07T15:07:41.581Z,51.62
2022-12-07T15:10:30.489Z,50.87
2022-12-07T15:13:21.375Z,50.65
2022-12-07T15:15:50.129Z,50.89
2022-12-07T15:18:17.672Z,51.80
2022-12-07T15:20:45.313Z,51.48
2022-12-07T15:23:12.656Z,50.85
2022-12-07T15:25:47.444Z,50.88
2022-12-07T15:28:15.445Z,51.47
2022-12-07T15:30:46.036Z,51.74
2022-12-07T15:33:14.610Z,51.54
2022-12-07T15:35:45.777Z,51.47
2022-12-07T15:38:12.841Z,52.00
2022-12-07T15:40:39.654Z,52.48
2022-12-07T15:43:26.466Z,52.89
2022-12-07T15:45:53.395Z,52.82
2022-12-07T15:48:28.981Z,52.69
2022-12-07T15:51:06.862Z,53.71
2022-12-07T15:53:34.801Z,54.16
2022-12-07T15:56:01.925Z,55.31
2022-12-07T15:58:30.101Z,55.63
2022-12-07T16:00:56.866Z,54.76
2022-12-07T16:03:23.627Z,54.07
2022-12-07T16:05:51.825Z,54.49
2022-12-07T16:08:18.910Z,54.25
2022-12-07T16:10:45.857Z,54.36
2022-12-07T16:13:14.831Z,55.85
2022-12-07T16:15:42.000Z,55.13
2022-12-07T16:18:09.554Z,54.64
2022-12-07T16:20:36.651Z,55.41
2022-12-07T16:23:03.550Z,55.32
2022-12-07T16:25:30.359Z,54.39
2022-12-07T16:27:57.240Z,55.00
2022-12-07T16:30:23.939Z,55.15
2022-12-07T16:32:51.365Z,55.51
2022-12-07T16:35:18.214Z,55.70
2022-12-07T16:37:45.173Z,54.86
2022-12-07T16:40:12.765Z,54.57
2022-12-07T16:42:39.750Z,55.06
2022-12-07T16:45:06.988Z,55.82
2022-12-07T16:47:33.731Z,56.00
2022-12-07T16:50:00.580Z,58.05
2022-12-07T16:52:27.532Z,57.01
2022-12-07T16:54:54.185Z,56.45
2022-12-07T16:57:23.299Z,57.38
2022-12-07T16:59:51.681Z,57.16
2022-12-07T17:02:18.687Z,57.20
2022-12-07T17:04:46.503Z,56.42
2022-12-07T17:07:13.563Z,56.92
2022-12-07T17:09:40.385Z,56.23
2022-12-07T17:12:07.794Z,57.12
2022-12-07T17:14:53.123Z,58.29
2022-12-07T17:17:20.208Z,57.97
2022-12-07T17:19:47.290Z,56.91
2022-12-07T17:22:14.057Z,56.49
2022-12-07T17:24:40.955Z,56.57
2022-12-07T17:27:07.942Z,55.99
2022-12-07T17:29:34.978Z,56.83
2022-12-07T17:32:02.044Z,56.57
2022-12-07T17:34:28.891Z,55.78
2022-12-07T17:36:55.875Z,57.06
2022-12-07T17:39:22.829Z,58.51
2022-12-07T17:42:08.183Z,57.19
2022-12-07T17:44:35.050Z,57.67
2022-12-07T17:47:03.997Z,58.12
2022-12-07T17:49:31.024Z,57.59
2022-12-07T17:52:17.070Z,57.35
2022-12-07T17:54:44.107Z,57.05
2022-12-07T17:57:10.919Z,59.04
2022-12-07T17:59:38.032Z,57.72
2022-12-07T18:02:05.543Z,58.00
2022-12-07T18:04:33.588Z,59.96
2022-12-07T18:07:00.365Z,60.47
2022-12-07T18:09:27.453Z,58.89
2022-12-07T18:11:54.566Z,58.31
2022-12-07T18:14:21.480Z,57.64
2022-12-07T18:16:49.904Z,57.62
2022-12-07T18:19:17.398Z,57.46
2022-12-07T18:21:45.179Z,59.22
2022-12-07T18:24:13.864Z,58.92
2022-12-07T18:26:41.606Z,58.50
2022-12-07T18:29:10.676Z,58.57
2022-12-07T18:31:37.921Z,57.85
2022-12-07T18:34:14.079Z,58.67
2022-12-07T18:36:43.006Z,58.12
2022-12-07T18:39:10.408Z,58.88
2022-12-07T18:41:38.567Z,58.91
2022-12-07T18:44:06.671Z,58.13
2022-12-07T18:46:34.449Z,57.36
2022-12-07T18:49:01.456Z,57.74
2022-12-07T18:51:32.317Z,58.66
2022-12-07T18:54:01.275Z,58.25
2022-12-07T18:56:29.492Z,59.10
2022-12-07T18:59:19.837Z,59.80
2022-12-07T19:01:50.801Z,59.32
2022-12-07T19:04:17.864Z,59.76
2022-12-07T19:06:46.141Z,58.63
2022-12-07T19:09:13.853Z,58.38
2022-12-07T19:11:51.458Z,57.79
2022-12-07T19:14:21.262Z,57.88
2022-12-07T19:16:52.402Z,57.52
2022-12-07T19:19:21.193Z,57.53
2022-12-07T19:21:48.305Z,56.90
2022-12-07T19:24:19.679Z,57.49
2022-12-07T19:26:48.470Z,57.73
2022-12-07T19:29:15.421Z,56.97
2022-12-07T19:31:42.727Z,56.77
2022-12-07T19:34:11.834Z,56.99
2022-12-07T19:36:39.543Z,58.02
2022-12-07T19:39:11.387Z,59.10
2022-12-07T19:41:44.048Z,58.70
2022-12-07T19:44:18.913Z,58.56
2022-12-07T19:46:50.059Z,59.07
2022-12-07T19:49:18.505Z,58.19
2022-12-07T19:51:47.108Z,57.90
2022-12-07T19:54:15.828Z,58.16
2022-12-07T19:56:43.470Z,58.64
2022-12-07T19:59:11.081Z,58.26
2022-12-07T20:01:40.740Z,58.39
2022-12-07T20:04:11.018Z,58.84
2022-12-07T20:06:38.083Z,59.42
2022-12-07T20:09:05.160Z,60.24
2022-12-07T20:11:50.501Z,59.82
2022-12-07T20:14:17.321Z,59.48
2022-12-07T20:16:47.135Z,58.98
2022-12-07T20:19:16.934Z,57.86
2022-12-07T20:21:44.530Z,58.09
2022-12-07T20:24:18.102Z,57.83
2022-12-07T20:26:46.419Z,58.81
2022-12-07T20:29:18.301Z,58.41
2022-12-07T20:31:47.392Z,59.17
2022-12-07T20:34:14.375Z,58.59
2022-12-07T20:36:41.817Z,59.77
2022-12-07T20:39:08.785Z,60.12
2022-12-07T20:41:54.309Z,59.27
2022-12-07T20:44:21.209Z,59.59
2022-12-07T20:46:48.296Z,59.51
2022-12-07T20:49:17.100Z,59.10
2022-12-07T20:51:45.304Z,59.64
2022-12-07T20:54:13.445Z,59.30
2022-12-07T20:56:40.794Z,59.32
2022-12-07T20:59:10.779Z,59.31
2022-12-07T21:01:37.821Z,60.17
2022-12-07T21:04:05.311Z,60.37
2022-12-07T21:06:32.269Z,60.36
2022-12-07T21:09:00.649Z,60.15
2022-12-07T21:11:30.018Z,62.28
2022-12-07T21:13:57.325Z,60.83
2022-12-07T21:16:30.299Z,59.66
2022-12-07T21:19:02.455Z,60.13
2022-12-07T21:21:30.545Z,59.50
2022-12-07T21:24:02.045Z,60.03
2022-12-07T21:26:31.239Z,61.35
2022-12-07T21:28:58.146Z,60.28
2022-12-07T21:31:25.704Z,60.18
2022-12-07T21:33:52.556Z,60.89
2022-12-07T21:36:22.880Z,60.88
2022-12-07T21:38:50.178Z,60.86
2022-12-07T21:41:30.160Z,60.14
2022-12-07T21:43:58.098Z,60.00
2022-12-07T21:46:31.513Z,60.05
2022-12-07T21:49:03.325Z,59.73
2022-12-07T21:51:30.968Z,59.06
2022-12-07T21:53:59.032Z,59.79
2022-12-07T21:56:32.075Z,59.21
2022-12-07T21:59:02.106Z,60.53
2022-12-07T22:01:30.993Z,59.87
2022-12-07T22:03:58.170Z,59.71
2022-12-07T22:06:26.060Z,59.77
2022-12-07T22:08:54.093Z,60.14
2022-12-07T22:11:21.330Z,59.67
2022-12-07T22:14:10.625Z,59.73
2022-12-07T22:16:39.138Z,60.15
2022-12-07T22:19:07.914Z,60.74
2022-12-07T22:21:35.706Z,59.60
2022-12-07T22:24:04.037Z,59.08
2022-12-07T22:26:31.385Z,59.08
2022-12-07T22:28:58.140Z,59.50
2022-12-07T22:31:25.419Z,58.61
2022-12-07T22:33:52.740Z,59.15
2022-12-07T22:36:20.006Z,59.23
2022-12-07T22:38:47.112Z,59.22
2022-12-07T22:41:19.646Z,59.39
2022-12-07T22:43:46.534Z,58.54
2022-12-07T22:46:13.569Z,58.50
2022-12-07T22:48:41.018Z,58.80
2022-12-07T22:51:07.889Z,58.92
2022-12-07T22:53:34.696Z,62.75
2022-12-07T22:56:02.316Z,61.25
2022-12-07T22:58:29.324Z,61.19
2022-12-07T23:00:56.105Z,60.37
2022-12-07T23:03:23.629Z,61.29
2022-12-07T23:05:50.398Z,61.76
2022-12-07T23:08:17.402Z,61.28
2022-12-07T23:10:46.863Z,63.87
2022-12-07T23:13:32.000Z,61.82
2022-12-07T23:16:09.455Z,60.00
2022-12-07T23:18:36.437Z,59.72
2022-12-07T23:21:03.190Z,58.83
2022-12-07T23:23:30.335Z,59.11
2022-12-07T23:26:03.428Z,59.75
2022-12-07T23:28:30.702Z,59.41
2022-12-07T23:31:09.277Z,59.31
2022-12-07T23:33:36.523Z,58.10
2022-12-07T23:36:15.881Z,57.88
2022-12-07T23:38:44.957Z,57.87
2022-12-07T23:41:14.561Z,58.35
2022-12-07T23:43:42.630Z,58.33
2022-12-07T23:46:11.742Z,58.25
2022-12-07T23:48:39.488Z,58.21
2022-12-07T23:51:07.954Z,58.84
2022-12-07T23:53:36.369Z,58.14
2022-12-07T23:56:04.169Z,58.39
2022-12-07T23:58:31.160Z,58.78
